createdAt,value
2023-09-25T00:00:28.310Z,101096.59
2023-09-25T00:01:00.477Z,101103.97
2023-09-25T00:01:32.738Z,101108.28
2023-09-25T00:02:04.992Z,101111.78
2023-09-25T00:02:38.364Z,101110.28
2023-09-25T00:03:10.494Z,101107.75
2023-09-25T00:03:42.849Z,101106.09
2023-09-25T00:04:15.238Z,101107.75
2023-09-25T00:04:47.460Z,101104.13
2023-09-25T00:05:19.452Z,101109.13
2023-09-25T00:05:51.547Z,101107.16
2023-09-25T00:06:23.603Z,101102.81
2023-09-25T00:06:55.798Z,101101.84
2023-09-25T00:07:28.045Z,101102.31
2023-09-25T00:08:00.128Z,101102.13
2023-09-25T00:08:32.250Z,101107.31
2023-09-25T00:09:04.510Z,101102.97
2023-09-25T00:09:36.605Z,101099.19
2023-09-25T00:10:08.734Z,101092.84
2023-09-25T00:10:41.044Z,101089.66
2023-09-25T00:11:13.100Z,101083.81
2023-09-25T00:11:45.105Z,101097.88
2023-09-25T00:12:17.379Z,101086.72
2023-09-25T00:12:49.807Z,101092.25
2023-09-25T00:13:21.892Z,101086.78
2023-09-25T00:13:53.978Z,101088.59
2023-09-25T00:14:26.001Z,101089.44
2023-09-25T00:14:58.029Z,101092.75
2023-09-25T00:15:30.609Z,101091.78
2023-09-25T00:16:02.951Z,101087.28
2023-09-25T00:16:35.260Z,101089.13
2023-09-25T00:17:07.453Z,101082.13
2023-09-25T00:17:41.113Z,101081.44
2023-09-25T00:18:14.193Z,101082.44
2023-09-25T00:18:46.987Z,101075.44
2023-09-25T00:19:19.111Z,101083.56
2023-09-25T00:19:51.270Z,101078.09
2023-09-25T00:20:23.308Z,101080.63
2023-09-25T00:20:55.569Z,101076.94
2023-09-25T00:21:27.828Z,101066.97
2023-09-25T00:22:00.501Z,101072.31
2023-09-25T00:22:32.518Z,101072.44
2023-09-25T00:23:04.740Z,101070.31
2023-09-25T00:23:36.830Z,101071.16
2023-09-25T00:24:09.390Z,101073.97
2023-09-25T00:24:41.934Z,101074.81
2023-09-25T00:25:14.023Z,101069.50
2023-09-25T00:25:46.016Z,101074.97
2023-09-25T00:26:18.118Z,101069.78
2023-09-25T00:26:50.171Z,101065.31
2023-09-25T00:27:22.776Z,101067.97
2023-09-25T00:27:55.304Z,101069.13
2023-09-25T00:28:27.488Z,101069.66
2023-09-25T00:28:59.535Z,101060.69
2023-09-25T00:29:31.559Z,101060.69
2023-09-25T00:30:04.069Z,101063.34
2023-09-25T00:30:36.178Z,101063.34
2023-09-25T00:31:08.247Z,101060.69
2023-09-25T00:31:40.285Z,101064.84
2023-09-25T00:32:12.264Z,101052.50
2023-09-25T00:32:45.651Z,101056.00
2023-09-25T00:33:17.761Z,101060.50
2023-09-25T00:33:49.974Z,101057.69
2023-09-25T00:34:22.166Z,101054.19
2023-09-25T00:34:54.469Z,101058.16
2023-09-25T00:35:26.558Z,101052.31
2023-09-25T00:35:58.918Z,101050.19
2023-09-25T00:36:31.000Z,101052.69
2023-09-25T00:37:03.022Z,101051.84
2023-09-25T00:37:35.312Z,101046.34
2023-09-25T00:38:07.279Z,101053.22
2023-09-25T00:38:39.324Z,101047.06
2023-09-25T00:39:11.337Z,101055.56
2023-09-25T00:39:43.870Z,101046.06
2023-09-25T00:40:15.864Z,101036.41
2023-09-25T00:40:47.903Z,101042.56
2023-09-25T00:41:19.959Z,101044.25
2023-09-25T00:41:52.021Z,101047.56
2023-09-25T00:42:24.153Z,101045.88
2023-09-25T00:42:56.237Z,101040.75
2023-09-25T00:43:28.327Z,101036.25
2023-09-25T00:44:00.425Z,101038.91
2023-09-25T00:44:32.479Z,101037.06
2023-09-25T00:45:04.967Z,101038.91
2023-09-25T00:45:37.077Z,101034.91
2023-09-25T00:46:09.410Z,101042.19
2023-09-25T00:46:41.560Z,101037.56
2023-09-25T00:47:13.769Z,101044.38
2023-09-25T00:47:47.839Z,101040.03
2023-09-25T00:48:26.555Z,101051.38
2023-09-25T00:48:59.128Z,101045.53
2023-09-25T00:49:32.493Z,101049.72
2023-09-25T00:50:05.431Z,101051.22
2023-09-25T00:50:37.537Z,101041.25
2023-09-25T00:51:10.598Z,101046.72
2023-09-25T00:51:43.977Z,101054.72
2023-09-25T00:52:16.571Z,101041.41
2023-09-25T00:52:49.179Z,101040.56
2023-09-25T00:53:21.652Z,101040.56
2023-09-25T00:53:53.954Z,101043.09
2023-09-25T00:54:40.766Z,101045.75
2023-09-25T00:55:16.687Z,101044.25
2023-09-25T00:55:50.131Z,101036.25
2023-09-25T00:56:22.286Z,101039.22
2023-09-25T00:56:55.495Z,101046.34
2023-09-25T00:57:28.180Z,101044.72
2023-09-25T00:58:01.399Z,101044.72
2023-09-25T00:58:33.570Z,101040.38
2023-09-25T00:59:05.837Z,101041.34
2023-09-25T00:59:40.428Z,101038.69
2023-09-25T01:00:13.867Z,101047.50
2023-09-25T01:00:46.030Z,101044.72
2023-09-25T01:01:18.266Z,101047.38
2023-09-25T01:01:50.258Z,101043.03
2023-09-25T01:02:22.523Z,101047.66
2023-09-25T01:02:56.182Z,101045.19
2023-09-25T01:03:28.364Z,101037.50
2023-09-25T01:04:00.634Z,101035.66
2023-09-25T01:04:32.865Z,101045.19
2023-09-25T01:05:05.831Z,101039.69
2023-09-25T01:05:38.808Z,101046.00
2023-09-25T01:06:11.873Z,101043.34
2023-09-25T01:06:44.522Z,101045.50
2023-09-25T01:07:17.083Z,101046.63
2023-09-25T01:07:49.120Z,101045.63
2023-09-25T01:08:21.215Z,101045.78
2023-09-25T01:08:53.284Z,101046.47
2023-09-25T01:09:25.367Z,101050.81
2023-09-25T01:10:08.848Z,101049.13
2023-09-25T01:10:42.232Z,101047.47
2023-09-25T01:11:14.319Z,101056.28
2023-09-25T01:11:46.603Z,101053.25
2023-09-25T01:12:18.833Z,101056.59
2023-09-25T01:12:50.903Z,101061.22
2023-09-25T01:13:24.252Z,101056.75
2023-09-25T01:13:56.330Z,101066.41
2023-09-25T01:14:28.393Z,101063.88
2023-09-25T01:15:00.455Z,101064.06
2023-09-25T01:15:32.570Z,101065.88
2023-09-25T01:16:05.017Z,101062.53
2023-09-25T01:16:37.429Z,101065.19
2023-09-25T01:17:09.519Z,101073.88
2023-09-25T01:17:42.092Z,101074.72
2023-09-25T01:18:15.566Z,101079.00
2023-09-25T01:18:47.825Z,101078.19
2023-09-25T01:19:20.035Z,101075.69
2023-09-25T01:19:52.106Z,101081.84
2023-09-25T01:20:24.182Z,101084.50
2023-09-25T01:20:56.160Z,101084.19
2023-09-25T01:21:29.561Z,101084.19
2023-09-25T01:22:03.044Z,101085.88
2023-09-25T01:22:35.071Z,101092.03
2023-09-25T01:23:07.182Z,101091.19
2023-09-25T01:23:39.296Z,101093.53
2023-09-25T01:24:11.389Z,101089.19
2023-09-25T01:24:43.515Z,101092.84
2023-09-25T01:25:16.867Z,101096.66
2023-09-25T01:25:48.875Z,101089.66
2023-09-25T01:26:20.889Z,101094.84
2023-09-25T01:26:52.878Z,101095.69
2023-09-25T01:27:25.482Z,101104.50
2023-09-25T01:27:57.631Z,101109.66
2023-09-25T01:28:29.654Z,101102.38
2023-09-25T01:29:01.653Z,101102.38
2023-09-25T01:29:33.672Z,101101.38
2023-09-25T01:30:06.909Z,101102.81
2023-09-25T01:30:39.035Z,101106.53
2023-09-25T01:31:11.067Z,101108.34
2023-09-25T01:31:43.126Z,101110.16
2023-09-25T01:32:15.118Z,101112.03
2023-09-25T01:32:48.696Z,101110.16
2023-09-25T01:33:20.776Z,101107.16
2023-09-25T01:33:52.912Z,101108.47
2023-09-25T01:34:25.011Z,101099.78
2023-09-25T01:34:58.216Z,101101.78
2023-09-25T01:35:30.884Z,101101.09
2023-09-25T01:36:03.058Z,101099.88
2023-09-25T01:36:35.116Z,101102.38
2023-09-25T01:37:08.579Z,101109.22
2023-09-25T01:37:40.824Z,101093.03
2023-09-25T01:38:12.877Z,101102.75
2023-09-25T01:38:44.923Z,101105.75
2023-09-25T01:39:16.975Z,101101.72
2023-09-25T01:39:48.976Z,101105.22
2023-09-25T01:40:21.086Z,101103.38
2023-09-25T01:40:53.341Z,101104.50
2023-09-25T01:41:25.540Z,101103.38
2023-09-25T01:41:57.632Z,101103.22
2023-09-25T01:42:29.839Z,101100.09
2023-09-25T01:43:01.944Z,101100.75
2023-09-25T01:43:33.913Z,101090.13
2023-09-25T01:44:06.010Z,101100.09
2023-09-25T01:44:38.040Z,101099.97
2023-09-25T01:45:11.201Z,101099.25
2023-09-25T01:45:43.294Z,101092.97
2023-09-25T01:46:15.411Z,101089.25
2023-09-25T01:46:47.503Z,101091.72
2023-09-25T01:47:19.780Z,101090.09
2023-09-25T01:47:54.142Z,101092.13
2023-09-25T01:48:26.640Z,101088.63
2023-09-25T01:48:58.883Z,101090.28
2023-09-25T01:49:30.976Z,101088.78
2023-09-25T01:50:02.978Z,101081.78
2023-09-25T01:50:35.066Z,101086.13
2023-09-25T01:51:10.946Z,101090.44
2023-09-25T01:51:45.080Z,101084.28
2023-09-25T01:52:18.465Z,101081.09
2023-09-25T01:52:52.358Z,101083.94
2023-09-25T01:53:24.473Z,101077.44
2023-09-25T01:53:56.501Z,101086.78
2023-09-25T01:54:28.511Z,101082.44
2023-09-25T01:55:00.614Z,101078.81
2023-09-25T01:55:33.938Z,101082.97
2023-09-25T01:56:12.712Z,101081.34
2023-09-25T01:56:46.116Z,101085.63
2023-09-25T01:57:18.155Z,101077.84
2023-09-25T01:57:50.247Z,101084.81
2023-09-25T01:58:24.151Z,101075.69
2023-09-25T01:58:57.585Z,101086.34
2023-09-25T01:59:29.646Z,101087.31
2023-09-25T02:00:01.683Z,101084.81
2023-09-25T02:00:33.809Z,101084.81
2023-09-25T02:01:05.893Z,101084.81
2023-09-25T02:01:37.960Z,101083.81
2023-09-25T02:02:10.015Z,101081.16
2023-09-25T02:02:42.125Z,101077.50
2023-09-25T02:03:14.453Z,101077.66
2023-09-25T02:03:46.874Z,101075.00
2023-09-25T02:04:19.244Z,101069.69
2023-09-25T02:04:51.664Z,101078.50
2023-09-25T02:05:24.584Z,101074.34
2023-09-25T02:05:57.162Z,101072.66
2023-09-25T02:06:29.818Z,101076.00
2023-09-25T02:07:01.867Z,101074.16
2023-09-25T02:07:35.328Z,101074.16
2023-09-25T02:08:09.355Z,101072.34
2023-09-25T02:08:42.168Z,101073.03
2023-09-25T02:09:14.294Z,101071.03
2023-09-25T02:09:46.408Z,101074.53
2023-09-25T02:10:18.626Z,101074.53
2023-09-25T02:10:50.668Z,101067.41
2023-09-25T02:11:22.737Z,101070.06
2023-09-25T02:11:55.076Z,101071.03
2023-09-25T02:12:27.285Z,101070.19
2023-09-25T02:12:59.406Z,101068.22
2023-09-25T02:13:31.405Z,101070.38
2023-09-25T02:14:03.793Z,101062.22
2023-09-25T02:14:35.839Z,101062.53
2023-09-25T02:15:09.901Z,101063.22
2023-09-25T02:15:41.983Z,101059.25
2023-09-25T02:16:14.078Z,101068.22
2023-09-25T02:16:46.089Z,101066.88
2023-09-25T02:17:18.595Z,101056.69
2023-09-25T02:17:50.947Z,101061.88
2023-09-25T02:18:23.495Z,101059.22
2023-09-25T02:18:55.833Z,101057.38
2023-09-25T02:19:27.960Z,101062.22
2023-09-25T02:20:01.497Z,101061.56
2023-09-25T02:20:34.374Z,101063.56
2023-09-25T02:21:06.421Z,101057.44
2023-09-25T02:21:38.595Z,101064.59
2023-09-25T02:22:10.841Z,101057.59
2023-09-25T02:22:44.692Z,101053.25
2023-09-25T02:23:17.020Z,101054.94
2023-09-25T02:23:49.862Z,101055.75
2023-09-25T02:24:21.981Z,101051.75
2023-09-25T02:24:54.054Z,101051.28
2023-09-25T02:25:26.159Z,101051.28
2023-09-25T02:25:58.203Z,101048.44
2023-09-25T02:26:30.766Z,101041.47
2023-09-25T02:27:03.004Z,101037.13
2023-09-25T02:27:35.064Z,101039.28
2023-09-25T02:28:07.429Z,101032.44
2023-09-25T02:28:39.949Z,101035.94
2023-09-25T02:29:12.005Z,101032.28
2023-09-25T02:29:44.272Z,101032.28
2023-09-25T02:30:16.503Z,101029.63
2023-09-25T02:30:48.877Z,101026.81
2023-09-25T02:31:20.927Z,101032.94
2023-09-25T02:31:53.000Z,101032.13
2023-09-25T02:32:25.267Z,101023.47
2023-09-25T02:32:57.403Z,101020.13
2023-09-25T02:33:29.592Z,101020.94
2023-09-25T02:34:02.029Z,101022.78
2023-09-25T02:34:34.043Z,101018.28
2023-09-25T02:35:06.946Z,101013.97
2023-09-25T02:35:38.973Z,101020.13
2023-09-25T02:36:11.038Z,101020.94
2023-09-25T02:36:43.478Z,101010.78
2023-09-25T02:37:15.587Z,101016.41
2023-09-25T02:37:48.965Z,101016.97
2023-09-25T02:38:21.016Z,101012.75
2023-09-25T02:38:53.045Z,101017.63
2023-09-25T02:39:25.424Z,101011.31
2023-09-25T02:39:57.521Z,101019.28
2023-09-25T02:40:29.654Z,101013.28
2023-09-25T02:41:01.950Z,101022.94
2023-09-25T02:41:34.402Z,101015.94
2023-09-25T02:42:06.828Z,101007.44
2023-09-25T02:42:39.038Z,101010.47
2023-09-25T02:43:11.103Z,101007.81
2023-09-25T02:43:43.366Z,101005.81
2023-09-25T02:44:15.427Z,101006.97
2023-09-25T02:44:47.455Z,100997.19
2023-09-25T02:45:19.579Z,100994.66
2023-09-25T02:45:52.174Z,100988.69
2023-09-25T02:46:24.777Z,100988.69
2023-09-25T02:46:56.811Z,100980.84
2023-09-25T02:47:28.951Z,100988.16
2023-09-25T02:48:01.121Z,100992.63
2023-09-25T02:48:33.416Z,100993.78
2023-09-25T02:49:05.552Z,100991.94
2023-09-25T02:49:37.945Z,100994.78
2023-09-25T02:50:10.572Z,100993.09
2023-09-25T02:50:44.909Z,100997.59
2023-09-25T02:51:17.178Z,100996.44
2023-09-25T02:51:49.251Z,101001.22
2023-09-25T02:52:21.546Z,101005.72
2023-09-25T02:52:54.949Z,101006.03
2023-09-25T02:53:27.137Z,101007.00
2023-09-25T02:53:59.242Z,101008.53
2023-09-25T02:54:31.745Z,101006.72
2023-09-25T02:55:04.721Z,101013.69
2023-09-25T02:55:36.745Z,101005.00
2023-09-25T02:56:08.855Z,101003.44
2023-09-25T02:56:40.940Z,101011.88
2023-09-25T02:57:13.043Z,101006.72
2023-09-25T02:57:45.438Z,100998.72
2023-09-25T02:58:17.919Z,100996.06
2023-09-25T02:58:50.062Z,101000.22
2023-09-25T02:59:22.302Z,100994.06
2023-09-25T02:59:54.437Z,100995.69
2023-09-25T03:00:26.815Z,100997.84
2023-09-25T03:00:59.163Z,101007.81
2023-09-25T03:01:33.112Z,101007.94
2023-09-25T03:02:05.539Z,101007.72
2023-09-25T03:02:37.881Z,101006.59
2023-09-25T03:03:10.004Z,101012.59
2023-09-25T03:03:43.552Z,101014.16
2023-09-25T03:04:15.949Z,101010.00
2023-09-25T03:04:48.156Z,101022.69
2023-09-25T03:05:20.490Z,101013.56
2023-09-25T03:05:52.704Z,101015.72
2023-09-25T03:06:25.411Z,101017.31
2023-09-25T03:06:57.815Z,101007.13
2023-09-25T03:07:30.576Z,101020.94
2023-09-25T03:08:04.770Z,101020.13
2023-09-25T03:08:36.989Z,101016.63
2023-09-25T03:09:09.034Z,101018.81
2023-09-25T03:09:41.352Z,101013.81
2023-09-25T03:10:13.545Z,101025.22
2023-09-25T03:10:45.773Z,101014.41
2023-09-25T03:11:17.892Z,101025.88
2023-09-25T03:11:49.925Z,101025.75
2023-09-25T03:12:22.061Z,101025.03
2023-09-25T03:12:54.105Z,101024.91
2023-09-25T03:13:26.142Z,101036.38
2023-09-25T03:13:58.208Z,101031.06
2023-09-25T03:14:30.189Z,101040.69
2023-09-25T03:15:02.205Z,101042.53
2023-09-25T03:15:34.272Z,101039.88
2023-09-25T03:16:13.897Z,101039.34
2023-09-25T03:16:46.738Z,101039.16
2023-09-25T03:17:18.780Z,101038.31
2023-09-25T03:17:50.875Z,101036.97
2023-09-25T03:18:23.022Z,101035.84
2023-09-25T03:18:55.499Z,101032.72
2023-09-25T03:19:27.644Z,101030.44
2023-09-25T03:20:00.115Z,101032.63
2023-09-25T03:20:32.226Z,101028.63
2023-09-25T03:21:08.701Z,101036.59
2023-09-25T03:21:41.564Z,101036.72
2023-09-25T03:22:13.912Z,101040.41
2023-09-25T03:22:47.031Z,101041.53
2023-09-25T03:23:21.725Z,101047.66
2023-09-25T03:23:55.952Z,101044.34
2023-09-25T03:24:28.232Z,101054.13
2023-09-25T03:25:00.256Z,101056.63
2023-09-25T03:25:35.383Z,101052.31
2023-09-25T03:26:14.021Z,101056.78
2023-09-25T03:26:46.098Z,101055.13
2023-09-25T03:27:18.230Z,101048.81
2023-09-25T03:27:50.930Z,101043.97
2023-09-25T03:28:22.949Z,101047.00
2023-09-25T03:28:54.958Z,101051.16
2023-09-25T03:29:27.265Z,101051.16
2023-09-25T03:29:59.534Z,101044.34
2023-09-25T03:30:31.530Z,101050.34
2023-09-25T03:31:03.666Z,101049.34
2023-09-25T03:31:36.025Z,101045.53
2023-09-25T03:32:08.057Z,101037.75
2023-09-25T03:32:40.243Z,101040.94
2023-09-25T03:33:12.287Z,101038.78
2023-09-25T03:33:46.781Z,101036.28
2023-09-25T03:34:19.066Z,101036.28
2023-09-25T03:34:51.061Z,101037.66
2023-09-25T03:35:23.402Z,101040.81
2023-09-25T03:35:55.453Z,101039.00
2023-09-25T03:36:27.686Z,101036.66
2023-09-25T03:36:59.738Z,101040.16
2023-09-25T03:37:32.047Z,101042.69
2023-09-25T03:38:04.489Z,101047.28
2023-09-25T03:38:38.853Z,101042.97
2023-09-25T03:39:10.889Z,101041.44
2023-09-25T03:39:43.011Z,101051.25
2023-09-25T03:40:16.045Z,101049.75
2023-09-25T03:40:48.143Z,101051.56
2023-09-25T03:41:20.150Z,101059.09
2023-09-25T03:41:52.339Z,101050.78
2023-09-25T03:42:24.399Z,101053.13
2023-09-25T03:42:56.518Z,101053.00
2023-09-25T03:43:28.676Z,101043.41
2023-09-25T03:44:00.717Z,101048.13
2023-09-25T03:44:32.710Z,101051.31
2023-09-25T03:45:05.764Z,101051.84
2023-09-25T03:45:37.893Z,101051.19
2023-09-25T03:46:10.051Z,101053.97
2023-09-25T03:46:42.548Z,101055.34
2023-09-25T03:47:15.005Z,101052.81
2023-09-25T03:47:47.240Z,101056.19
2023-09-25T03:48:19.380Z,101058.00
2023-09-25T03:48:51.741Z,101063.00
2023-09-25T03:49:24.150Z,101060.22
2023-09-25T03:49:56.264Z,101062.56
2023-09-25T03:50:28.651Z,101059.75
2023-09-25T03:51:01.164Z,101064.91
2023-09-25T03:51:33.325Z,101065.75
2023-09-25T03:52:05.607Z,101063.63
2023-09-25T03:52:37.829Z,101070.91
2023-09-25T03:53:09.882Z,101066.56
2023-09-25T03:53:43.241Z,101072.75
2023-09-25T03:54:15.326Z,101071.63
2023-09-25T03:54:48.007Z,101074.97
2023-09-25T03:55:20.111Z,101059.06
2023-09-25T03:55:52.520Z,101072.59
2023-09-25T03:56:24.625Z,101078.63
2023-09-25T03:56:56.923Z,101077.63
2023-09-25T03:57:28.995Z,101087.44
2023-09-25T03:58:01.061Z,101079.66
2023-09-25T03:58:33.102Z,101089.19
2023-09-25T03:59:05.249Z,101082.31
2023-09-25T03:59:37.242Z,101089.00
2023-09-25T04:00:10.217Z,101090.38
2023-09-25T04:00:42.842Z,101096.53
2023-09-25T04:01:15.402Z,101101.53
2023-09-25T04:01:47.517Z,101099.88
2023-09-25T04:02:19.585Z,101098.72
2023-09-25T04:02:51.730Z,101105.88
2023-09-25T04:03:23.839Z,101099.72
2023-09-25T04:03:56.051Z,101113.03
2023-09-25T04:04:28.324Z,101109.53
2023-09-25T04:05:00.433Z,101114.69
2023-09-25T04:05:33.445Z,101112.72
2023-09-25T04:06:05.737Z,101115.53
2023-09-25T04:06:37.861Z,101118.06
2023-09-25T04:07:09.909Z,101125.88
2023-09-25T04:07:42.161Z,101118.41
2023-09-25T04:08:14.190Z,101119.25
2023-09-25T04:08:47.676Z,101125.25
2023-09-25T04:09:19.890Z,101121.75
2023-09-25T04:09:51.959Z,101123.41
2023-09-25T04:10:24.076Z,101124.19
2023-09-25T04:10:56.068Z,101127.69
2023-09-25T04:11:28.099Z,101124.72
2023-09-25T04:12:00.166Z,101118.59
2023-09-25T04:12:32.247Z,101123.72
2023-09-25T04:13:04.676Z,101132.56
2023-09-25T04:13:36.682Z,101128.22
2023-09-25T04:14:08.719Z,101124.72
2023-09-25T04:14:40.729Z,101128.22
2023-09-25T04:15:12.875Z,101132.88
2023-09-25T04:15:45.044Z,101127.69
2023-09-25T04:16:17.086Z,101131.50
2023-09-25T04:16:49.266Z,101131.63
2023-09-25T04:17:21.392Z,101128.31
2023-09-25T04:17:54.206Z,101131.94
2023-09-25T04:18:26.456Z,101128.84
2023-09-25T04:18:58.792Z,101127.34
2023-09-25T04:19:32.263Z,101128.63
2023-09-25T04:20:05.350Z,101132.66
2023-09-25T04:20:38.869Z,101130.66
2023-09-25T04:21:11.461Z,101125.66
2023-09-25T04:21:43.457Z,101130.00
2023-09-25T04:22:15.625Z,101122.81
2023-09-25T04:22:48.166Z,101127.16
2023-09-25T04:23:20.297Z,101125.19
2023-09-25T04:23:53.739Z,101130.34
2023-09-25T04:24:26.166Z,101125.72
2023-09-25T04:24:58.641Z,101112.03
2023-09-25T04:25:30.687Z,101108.53
2023-09-25T04:26:02.781Z,101116.19
2023-09-25T04:26:34.876Z,101121.84
2023-09-25T04:27:07.289Z,101127.69
2023-09-25T04:27:39.381Z,101129.50
2023-09-25T04:28:11.640Z,101124.03
2023-09-25T04:28:43.760Z,101131.88
2023-09-25T04:29:15.891Z,101132.56
2023-09-25T04:29:48.079Z,101139.03
2023-09-25T04:30:20.979Z,101136.19
2023-09-25T04:30:53.148Z,101133.25
2023-09-25T04:31:25.605Z,101142.03
2023-09-25T04:31:57.763Z,101135.06
2023-09-25T04:32:29.904Z,101142.59
2023-09-25T04:33:02.002Z,101137.56
2023-09-25T04:33:34.459Z,101130.09
2023-09-25T04:34:06.581Z,101140.47
2023-09-25T04:34:38.620Z,101139.09
2023-09-25T04:35:10.853Z,101142.03
2023-09-25T04:35:43.390Z,101142.03
2023-09-25T04:36:15.574Z,101141.06
2023-09-25T04:36:47.918Z,101134.63
2023-09-25T04:37:19.961Z,101140.75
2023-09-25T04:37:52.684Z,101140.75
2023-09-25T04:38:24.791Z,101142.28
2023-09-25T04:38:58.596Z,101133.25
2023-09-25T04:39:30.745Z,101143.56
2023-09-25T04:40:03.276Z,101140.59
2023-09-25T04:40:35.421Z,101145.72
2023-09-25T04:41:07.562Z,101136.72
2023-09-25T04:41:39.930Z,101148.44
2023-09-25T04:42:12.043Z,101141.28
2023-09-25T04:42:44.285Z,101140.28
2023-09-25T04:43:16.846Z,101153.59
2023-09-25T04:43:48.887Z,101145.31
2023-09-25T04:44:21.968Z,101144.75
2023-09-25T04:44:54.397Z,101152.94
2023-09-25T04:45:26.789Z,101149.56
2023-09-25T04:45:59.017Z,101150.25
2023-09-25T04:46:31.230Z,101154.28
2023-09-25T04:47:03.276Z,101154.13
2023-09-25T04:47:35.374Z,101152.16
2023-09-25T04:48:07.833Z,101155.97
2023-09-25T04:48:39.987Z,101157.63
2023-09-25T04:49:12.884Z,101159.75
2023-09-25T04:49:45.147Z,101158.25
2023-09-25T04:50:17.337Z,101154.59
2023-09-25T04:50:49.386Z,101164.41
2023-09-25T04:51:21.451Z,101164.22
2023-09-25T04:51:53.578Z,101163.41
2023-09-25T04:52:25.672Z,101163.41
2023-09-25T04:52:58.041Z,101174.03
2023-09-25T04:53:30.038Z,101165.78
2023-09-25T04:54:04.144Z,101161.28
2023-09-25T04:54:36.274Z,101159.44
2023-09-25T04:55:12.654Z,101157.63
2023-09-25T04:55:45.036Z,101154.28
2023-09-25T04:56:20.489Z,101156.94
2023-09-25T04:56:52.524Z,101159.59
2023-09-25T04:57:24.615Z,101155.41
2023-09-25T04:57:56.786Z,101156.09
2023-09-25T04:58:29.353Z,101161.44
2023-09-25T04:59:01.965Z,101160.59
2023-09-25T04:59:34.073Z,101155.41
2023-09-25T05:00:07.357Z,101159.94
2023-09-25T05:00:39.517Z,101158.06
2023-09-25T05:01:11.628Z,101158.06
2023-09-25T05:01:44.196Z,101154.44
2023-09-25T05:02:16.366Z,101161.28
2023-09-25T05:02:50.214Z,101165.59
2023-09-25T05:03:22.290Z,101155.78
2023-09-25T05:03:54.535Z,101160.97
2023-09-25T05:04:30.529Z,101159.81
2023-09-25T05:05:02.651Z,101163.31
2023-09-25T05:05:34.869Z,101162.47
2023-09-25T05:06:07.043Z,101167.50
2023-09-25T05:06:39.537Z,101164.03
2023-09-25T05:07:11.964Z,101164.81
2023-09-25T05:07:45.056Z,101157.84
2023-09-25T05:08:17.544Z,101163.19
2023-09-25T05:08:49.932Z,101162.88
2023-09-25T05:09:23.743Z,101157.00
2023-09-25T05:09:56.057Z,101163.84
2023-09-25T05:10:30.000Z,101160.50
2023-09-25T05:11:02.115Z,101160.66
2023-09-25T05:11:34.150Z,101161.34
2023-09-25T05:12:06.611Z,101164.16
2023-09-25T05:12:39.454Z,101168.78
2023-09-25T05:13:11.526Z,101161.50
2023-09-25T05:13:43.568Z,101166.81
2023-09-25T05:14:15.896Z,101168.31
2023-09-25T05:14:47.953Z,101168.19
2023-09-25T05:15:21.138Z,101162.16
2023-09-25T05:15:53.266Z,101158.84
2023-09-25T05:16:25.435Z,101162.16
2023-09-25T05:16:57.593Z,101161.19
2023-09-25T05:17:29.591Z,101163.84
2023-09-25T05:18:01.656Z,101156.19
2023-09-25T05:18:33.862Z,101164.31
2023-09-25T05:19:06.094Z,101161.19
2023-09-25T05:19:38.165Z,101165.38
2023-09-25T05:20:12.938Z,101165.91
2023-09-25T05:20:45.355Z,101163.75
2023-09-25T05:21:17.486Z,101164.44
2023-09-25T05:21:50.103Z,101158.72
2023-09-25T05:22:22.171Z,101160.09
2023-09-25T05:22:55.882Z,101160.47
2023-09-25T05:23:28.036Z,101160.78
2023-09-25T05:24:00.150Z,101163.31
2023-09-25T05:24:33.647Z,101158.50
2023-09-25T05:25:07.289Z,101162.97
2023-09-25T05:25:39.289Z,101161.69
2023-09-25T05:26:11.322Z,101161.81
2023-09-25T05:26:43.428Z,101164.16
2023-09-25T05:27:15.478Z,101167.38
2023-09-25T05:27:48.658Z,101166.69
2023-09-25T05:28:20.731Z,101164.88
2023-09-25T05:28:52.808Z,101162.72
2023-09-25T05:29:25.103Z,101164.06
2023-09-25T05:29:57.288Z,101167.59
2023-09-25T05:30:29.625Z,101166.22
2023-09-25T05:31:01.769Z,101163.94
2023-09-25T05:31:33.904Z,101167.97
2023-09-25T05:32:06.109Z,101164.28
2023-09-25T05:32:39.018Z,101163.44
2023-09-25T05:33:11.129Z,101160.47
2023-09-25T05:33:43.324Z,101162.31
2023-09-25T05:34:15.416Z,101168.16
2023-09-25T05:34:47.702Z,101168.00
2023-09-25T05:35:20.624Z,101170.97
2023-09-25T05:35:53.113Z,101175.31
2023-09-25T05:36:25.367Z,101170.66
2023-09-25T05:36:57.623Z,101175.16
2023-09-25T05:37:29.729Z,101172.50
2023-09-25T05:38:01.886Z,101167.72
2023-09-25T05:38:33.914Z,101171.75
2023-09-25T05:39:06.025Z,101172.56
2023-09-25T05:39:39.715Z,101172.41
2023-09-25T05:40:11.952Z,101179.09
2023-09-25T05:40:44.518Z,101172.63
2023-09-25T05:41:16.745Z,101177.63
2023-09-25T05:41:48.720Z,101174.13
2023-09-25T05:42:20.915Z,101175.81
2023-09-25T05:42:53.016Z,101180.81
2023-09-25T05:43:26.356Z,101176.13
2023-09-25T05:43:58.577Z,101183.97
2023-09-25T05:44:30.640Z,101183.84
2023-09-25T05:45:02.742Z,101173.19
2023-09-25T05:45:34.810Z,101180.84
2023-09-25T05:46:07.568Z,101184.19
2023-09-25T05:46:39.691Z,101173.38
2023-09-25T05:47:12.696Z,101189.50
2023-09-25T05:47:45.258Z,101182.81
2023-09-25T05:48:17.402Z,101183.16
2023-09-25T05:48:49.823Z,101179.16
2023-09-25T05:49:22.165Z,101174.81
2023-09-25T05:49:54.312Z,101182.47
2023-09-25T05:50:26.316Z,101181.19
2023-09-25T05:50:58.406Z,101184.50
2023-09-25T05:51:30.563Z,101194.16
2023-09-25T05:52:02.578Z,101196.84
2023-09-25T05:52:35.191Z,101190.81
2023-09-25T05:53:07.333Z,101188.69
2023-09-25T05:53:39.353Z,101193.53
2023-09-25T05:54:11.421Z,101181.53
2023-09-25T05:54:45.022Z,101194.22
2023-09-25T05:55:17.041Z,101187.22
2023-09-25T05:55:49.167Z,101185.06
2023-09-25T05:56:21.143Z,101181.06
2023-09-25T05:56:53.411Z,101179.59
2023-09-25T05:57:27.459Z,101181.59
2023-09-25T05:57:59.765Z,101177.31
2023-09-25T05:58:32.346Z,101166.78
2023-09-25T05:59:04.584Z,101175.16
2023-09-25T05:59:37.024Z,101183.63
2023-09-25T06:00:09.640Z,101177.97
2023-09-25T06:00:41.868Z,101187.50
2023-09-25T06:01:14.364Z,101184.69
2023-09-25T06:01:46.641Z,101186.03
2023-09-25T06:02:18.666Z,101180.22
2023-09-25T06:02:51.440Z,101188.78
2023-09-25T06:03:23.725Z,101182.13
2023-09-25T06:03:55.969Z,101182.81
2023-09-25T06:04:28.101Z,101185.16
2023-09-25T06:05:00.254Z,101185.50
2023-09-25T06:05:34.933Z,101182.31
2023-09-25T06:06:06.950Z,101191.31
2023-09-25T06:06:39.133Z,101196.16
2023-09-25T06:07:11.390Z,101196.34
2023-09-25T06:07:43.836Z,101196.84
2023-09-25T06:08:16.110Z,101196.88
2023-09-25T06:08:48.462Z,101196.88
2023-09-25T06:09:20.719Z,101200.53
2023-09-25T06:09:54.151Z,101192.50
2023-09-25T06:10:26.278Z,101191.16
2023-09-25T06:11:01.744Z,101188.69